KESN/ESN METAR and TAF weather

Enter ICAO airport designator
Station Type Date Time Source
KESN METAR 2019/06/17 07:39 UTC NOAA

KESN 170739Z AUTO 22004KT 10SM CLR 25/22 A2993 RMK AO2 T02530215


Station Type Date Time Source
KESN Decoded METAR 2019/06/17 07:39 UTC NOAA

Easton / Newman Field, MD, United States (KESN) 38-48N 076-04W
Jun 17, 2019 - 03:39 AM EDT / 2019.06.17 0739 UTC
Wind: from the SW (220 degrees) at 5 MPH (4 KT):0
Visibility: 10 mile(s):0
Sky conditions: clear
Temperature: 77.5 F (25.3 C)
Dew Point: 70.7 F (21.5 C)
Relative Humidity: 79%
Pressure (altimeter): 29.93 in. Hg (1013 hPa)
ob: KESN 170739Z AUTO 22004KT 10SM CLR 25/22 A2993 RMK AO2 T02530215
cycle: 7

Station Type Date Time Source
KESN TAF UTC NOAA

Error!

Example: see airport list